Time;durP1;ratioP1;P1;durP2;ratioP2;P2;SDS_P1;SDS_P2;PMS_P1;PMS_P2;Temp;Humidity;BMP_temperature;BMP_pressure;BME280_temperature;BME280_humidity;BME280_pressure;Samples;Min_cycle;Max_cycle;Signal;HPM_P1;HPM_P2
2022/02/02 00:00:18;;;;;;;12.37;6.30;;;;;;;-2.66;56.85;98378.83;1787697;80;21015;-38
2022/02/02 00:02:51;;;;;;;12.18;6.58;;;;;;;-2.64;56.83;98378.00;1745906;80;21085;-38
2022/02/02 00:05:27;;;;;;;12.65;6.10;;;;;;;-2.61;56.80;98374.75;1727016;82;21046;-38
2022/02/02 00:13:12;;;;;;;11.45;5.92;;;;;;;-2.54;56.77;98384.97;1756405;81;21484;-39
2022/02/02 00:15:48;;;;;;;11.78;6.03;;;;;;;-2.57;56.79;98382.38;1755580;81;21057;-38
2022/02/02 00:20:39;;;;;;;13.58;6.37;;;;;;;-2.55;56.83;98376.75;1756554;81;20997;-38
2022/02/02 00:23:02;;;;;;;11.10;6.58;;;;;;;-2.54;56.81;98373.81;1742566;81;20985;-38
2022/02/02 00:25:37;;;;;;;12.03;6.53;;;;;;;-2.55;56.78;98370.91;1726940;83;21473;-38
2022/02/02 00:28:00;;;;;;;13.00;6.03;;;;;;;-2.56;56.73;98370.66;1725238;82;21048;-39
2022/02/02 00:30:31;;;;;;;13.00;6.85;;;;;;;-2.60;56.72;98364.38;1726472;82;21125;-39
2022/02/02 00:35:26;;;;;;;9.98;5.97;;;;;;;-2.74;56.73;98353.80;1726337;83;20953;-39
2022/02/02 00:37:49;;;;;;;10.00;5.90;;;;;;;-2.78;56.74;98358.67;1726098;82;21032;-39
2022/02/02 00:40:16;;;;;;;17.32;6.72;;;;;;;-2.85;56.73;98353.75;1726393;83;21119;-39
2022/02/02 00:42:45;;;;;;;13.95;6.10;;;;;;;-2.93;56.83;98361.08;1726374;83;21019;-39
2022/02/02 00:45:11;;;;;;;15.28;6.70;;;;;;;-3.02;56.96;98360.74;1726443;83;21869;-39
2022/02/02 00:47:39;;;;;;;13.05;6.62;;;;;;;-3.08;57.07;98355.53;1726439;82;21016;-39
2022/02/02 00:50:07;;;;;;;13.70;6.42;;;;;;;-3.14;57.17;98356.70;1726478;83;21050;-39
2022/02/02 00:52:34;;;;;;;12.37;6.37;;;;;;;-3.23;57.30;98353.17;1726535;83;21061;-39
2022/02/02 00:55:01;;;;;;;14.95;6.47;;;;;;;-3.29;57.48;98351.69;1726414;83;21056;-39
2022/02/02 00:57:29;;;;;;;10.53;6.17;;;;;;;-3.32;57.55;98343.55;1726476;83;21146;-39
2022/02/02 00:59:57;;;;;;;14.58;6.72;;;;;;;-3.38;57.66;98334.90;1726350;81;21247;-39
2022/02/02 01:02:24;;;;;;;9.48;5.37;;;;;;;-3.42;57.76;98336.56;1726504;83;21041;-39
2022/02/02 01:04:51;;;;;;;9.95;6.05;;;;;;;-3.43;57.73;98327.05;1726258;83;21014;-39
2022/02/02 01:28:27;;;;;;;9.20;5.33;;;;;;;-3.55;57.64;98288.34;1756477;81;21638;-39
2022/02/02 01:30:54;;;;;;;13.20;5.92;;;;;;;-3.54;57.46;98285.41;1756790;81;21009;-39
2022/02/02 01:33:21;;;;;;;9.13;5.00;;;;;;;-3.53;57.45;98282.19;1756588;81;21032;-39
2022/02/02 01:35:49;;;;;;;9.30;5.30;;;;;;;-3.54;57.37;98272.70;1756480;81;21067;-39
2022/02/02 01:38:16;;;;;;;8.60;4.75;;;;;;;-3.55;57.32;98276.42;1756591;81;21036;-39
2022/02/02 01:40:49;;;;;;;7.25;4.50;;;;;;;-3.56;57.28;98280.14;1756437;81;20937;-39
2022/02/02 01:43:19;;;;;;;9.63;4.95;;;;;;;-3.57;57.21;98278.02;1756171;81;21520;-39
2022/02/02 01:45:48;;;;;;;7.95;4.67;;;;;;;-3.63;57.17;98275.78;1755683;81;21013;-39
2022/02/02 01:48:39;;;;;;;9.00;4.45;;;;;;;-3.65;57.26;98273.95;1756305;81;21280;-39
2022/02/02 01:50:53;;;;;;;8.60;4.67;;;;;;;-3.69;57.19;98275.62;1726955;81;21086;-39
2022/02/02 01:53:21;;;;;;;8.63;4.58;;;;;;;-3.71;57.24;98269.81;1723915;83;21560;-39
2022/02/02 01:55:42;;;;;;;6.97;4.12;;;;;;;-3.72;57.19;98266.92;1732803;80;21005;-39
2022/02/02 02:00:40;;;;;;;8.95;4.65;;;;;;;-3.81;57.18;98251.47;1757632;80;21137;-39
2022/02/02 02:03:07;;;;;;;7.55;4.20;;;;;;;-3.85;57.21;98249.16;1788381;80;20988;-39
2022/02/02 02:05:33;;;;;;;7.83;4.17;;;;;;;-3.87;57.23;98248.69;1788629;80;21020;-39
2022/02/02 02:08:01;;;;;;;9.78;4.10;;;;;;;-3.86;57.20;98251.55;1781192;80;21012;-39
2022/02/02 02:10:27;;;;;;;10.32;4.45;;;;;;;-3.96;57.12;98240.08;1726366;82;21084;-39
2022/02/02 02:13:00;;;;;;;8.33;4.17;;;;;;;-3.88;57.12;98247.11;1723128;81;21149;-39
2022/02/02 02:15:28;;;;;;;8.15;3.90;;;;;;;-3.90;57.05;98250.57;1713649;82;21541;-39
2022/02/02 02:17:51;;;;;;;7.37;3.65;;;;;;;-3.90;57.10;98243.95;1713586;82;21573;-39
2022/02/02 02:20:18;;;;;;;8.70;4.10;;;;;;;-4.27;57.12;98190.09;1713657;82;21026;-39
2022/02/02 02:22:46;;;;;;;7.75;4.62;;;;;;;-3.88;57.10;98246.57;1713731;82;21525;-39
2022/02/02 02:25:25;;;;;;;10.65;4.90;;;;;;;-3.85;56.97;98245.19;1713556;83;21134;-39
2022/02/02 02:27:52;;;;;;;9.85;4.22;;;;;;;-3.82;56.85;98244.05;1713566;83;21062;-39
2022/02/02 02:31:01;;;;;;;9.03;4.60;;;;;;;-3.81;56.66;98236.90;1713609;83;21008;-39
2022/02/02 02:57:11;;;;;;;7.87;4.30;;;;;;;-4.05;56.77;98221.97;1743710;82;20977;-38
2022/02/02 02:59:44;;;;;;;8.00;4.72;;;;;;;-4.04;56.82;98215.61;1743296;81;20989;-38
2022/02/02 03:29:56;;;;;;;11.93;6.12;;;;;;;-3.82;56.15;98207.52;1737187;80;21026;-38
2022/02/02 03:32:43;;;;;;;9.88;5.05;;;;;;;-3.85;56.14;98206.80;1712782;82;21896;-38
2022/02/02 03:35:12;;;;;;;11.75;5.70;;;;;;;-3.85;56.19;98206.80;1712341;81;21508;-38
2022/02/02 03:54:09;;;;;;;12.93;6.97;;;;;;;-4.05;56.47;98202.13;1713529;82;20914;-39
2022/02/02 03:59:08;;;;;;;13.55;6.60;;;;;;;-4.15;56.66;98204.95;1713581;83;21133;-38
2022/02/02 04:01:47;;;;;;;22.58;7.20;;;;;;;-4.14;56.73;98209.70;1676167;85;21049;-38
2022/02/02 04:04:15;;;;;;;16.52;7.03;;;;;;;-4.12;56.76;98205.70;1675655;85;21008;-38
2022/02/02 04:06:27;;;;;;;16.60;7.58;;;;;;;-4.10;56.72;98204.07;1676655;85;20989;-38
2022/02/02 04:08:54;;;;;;;19.00;7.17;;;;;;;-4.07;56.70;98204.30;1692593;84;21088;-38
2022/02/02 04:11:41;;;;;;;14.68;7.35;;;;;;;-4.05;56.57;98201.33;1706929;84;21113;-38
2022/02/02 04:15:04;;;;;;;14.78;6.17;;;;;;;-4.06;56.62;98199.22;1680515;85;21511;-38
2022/02/02 04:17:12;;;;;;;26.57;7.62;;;;;;;-4.03;56.57;98196.55;1682215;85;21056;-38
2022/02/02 04:51:25;;;;;;;18.37;6.42;;;;;;;-4.35;57.08;98183.34;1764250;81;21133;-38
2022/02/02 05:03:32;;;;;;;15.30;7.08;;;;;;;-4.48;57.85;98190.17;1780062;80;21008;-39
2022/02/02 05:07:56;;;;;;;12.65;6.65;;;;;;;-4.42;57.98;98194.31;1752520;80;20983;-39
2022/02/02 05:10:31;;;;;;;12.60;6.55;;;;;;;-4.42;57.91;98188.48;1720023;83;21034;-39
2022/02/02 05:53:20;;;;;;;16.12;8.30;;;;;;;-4.34;58.72;98203.44;1726193;82;21016;-37
2022/02/02 05:55:46;;;;;;;18.42;8.35;;;;;;;-4.34;58.76;98194.17;1708978;83;21539;-37
2022/02/02 05:58:13;;;;;;;16.73;7.72;;;;;;;-4.32;58.75;98191.50;1727017;82;21005;-37
2022/02/02 06:00:40;;;;;;;14.35;7.80;;;;;;;-4.28;58.70;98204.92;1726831;82;21143;-37
2022/02/02 06:03:13;;;;;;;16.50;7.47;;;;;;;-4.19;58.66;98207.94;1726827;81;20998;-37
2022/02/02 06:05:41;;;;;;;15.13;6.87;;;;;;;-4.11;58.49;98210.44;1727066;82;21052;-37
2022/02/02 06:08:12;;;;;;;17.42;6.78;;;;;;;-4.05;58.30;98208.73;1731646;81;21017;-37
2022/02/02 06:10:41;;;;;;;15.80;6.65;;;;;;;-4.01;58.30;98209.72;1756964;81;21076;-37
2022/02/02 06:13:09;;;;;;;16.55;7.58;;;;;;;-3.92;58.22;98219.66;1756958;81;21082;-37
2022/02/02 06:15:36;;;;;;;16.62;7.95;;;;;;;-3.85;58.10;98208.91;1757002;81;21004;-37
2022/02/02 06:18:04;;;;;;;16.65;6.50;;;;;;;-3.78;57.86;98204.56;1756942;81;21593;-37
2022/02/02 06:20:33;;;;;;;19.87;7.53;;;;;;;-3.76;57.77;98202.39;1757217;81;20973;-37
2022/02/02 06:23:14;;;;;;;16.95;6.87;;;;;;;-3.73;57.74;98197.30;1782956;80;21328;-37
2022/02/02 06:25:44;;;;;;;16.40;7.40;;;;;;;-3.71;57.66;98204.94;1791207;80;21152;-37
2022/02/02 06:28:11;;;;;;;;;;;;;;;-3.70;57.65;98206.52;1789286;80;20913;-37
2022/02/02 06:30:38;;;;;;;18.35;7.17;;;;;;;-3.65;57.54;98202.44;1780165;80;20170;-37
2022/02/02 06:33:11;;;;;;;15.48;7.45;;;;;;;-3.73;57.74;98204.47;1767534;80;21045;-37
2022/02/02 06:35:38;;;;;;;20.02;7.80;;;;;;;-3.65;57.86;98207.73;1714288;83;21509;-38
2022/02/02 06:38:06;;;;;;;17.48;7.65;;;;;;;-3.53;57.73;98201.39;1679530;85;21974;-38
2022/02/02 06:40:33;;;;;;;13.58;7.03;;;;;;;-3.43;57.59;98209.14;1713586;83;21053;-37
2022/02/02 06:43:00;;;;;;;19.17;7.20;;;;;;;-3.35;57.44;98206.35;1679099;85;20965;-38
2022/02/02 06:45:27;;;;;;;15.30;6.83;;;;;;;-3.28;57.47;98215.99;1706309;82;21002;-38
2022/02/02 06:47:54;;;;;;;16.35;7.08;;;;;;;-3.22;57.33;98211.63;1743303;82;21594;-37
2022/02/02 06:50:26;;;;;;;15.65;7.12;;;;;;;-3.16;57.30;98205.68;1743399;82;21136;-37
2022/02/02 06:53:28;;;;;;;14.98;7.08;;;;;;;-3.08;57.15;98205.75;1742912;81;20981;-37
2022/02/02 06:59:42;;;;;;;13.13;6.75;;;;;;;-2.93;56.97;98201.20;1694402;84;20480;-37
2022/02/02 07:05:18;;;;;;;13.35;7.17;;;;;;;-2.81;56.88;98192.94;1694081;84;21561;-37
2022/02/02 07:08:07;;;;;;;14.53;7.58;;;;;;;-2.71;56.70;98195.36;1693383;84;21037;-37
2022/02/02 07:16:35;;;;;;;17.40;8.08;;;;;;;-2.44;56.46;98196.34;1779709;80;21025;-38
2022/02/02 07:21:50;;;;;;;17.25;8.53;;;;;;;-2.23;56.20;98197.41;1749860;80;21000;-38
2022/02/02 07:24:25;;;;;;;15.13;8.63;;;;;;;-2.14;56.15;98189.48;1721191;80;20987;-38
2022/02/02 07:29:30;;;;;;;14.13;7.47;;;;;;;-1.99;56.26;98180.59;1713636;82;20982;-38
2022/02/02 07:32:10;;;;;;;17.90;8.40;;;;;;;-1.87;56.15;98190.62;1713072;82;21470;-38
2022/02/02 07:37:37;;;;;;;17.85;7.53;;;;;;;-1.71;55.88;98179.83;1743192;81;20958;-38
2022/02/02 07:40:07;;;;;;;17.70;7.60;;;;;;;-1.66;55.86;98177.58;1743478;81;21527;-38
2022/02/02 07:42:33;;;;;;;15.25;7.40;;;;;;;-1.60;55.66;98179.80;1707637;82;21040;-38
2022/02/02 07:45:09;;;;;;;15.78;7.78;;;;;;;-1.55;55.65;98183.61;1707372;84;21149;-38
2022/02/02 07:47:42;;;;;;;17.82;8.48;;;;;;;-1.51;55.59;98187.24;1707499;84;21120;-38
2022/02/02 07:50:10;;;;;;;16.05;7.87;;;;;;;-1.49;55.60;98179.73;1707934;84;20946;-38
2022/02/02 07:52:38;;;;;;;15.35;7.58;;;;;;;-1.41;55.56;98187.50;1707378;84;21626;-38
2022/02/02 07:55:07;;;;;;;14.20;6.92;;;;;;;-1.34;55.58;98188.60;1707750;84;21061;-38
2022/02/02 07:57:36;;;;;;;15.70;7.85;;;;;;;-1.23;55.53;98189.64;1707863;84;21097;-38
2022/02/02 08:00:08;;;;;;;15.32;8.00;;;;;;;-1.14;55.37;98182.45;1693447;84;21028;-38
2022/02/02 08:03:07;;;;;;;15.28;8.33;;;;;;;-1.06;55.37;98173.69;1695268;82;20986;-38
2022/02/02 08:05:30;;;;;;;21.10;8.95;;;;;;;-0.97;55.10;98183.23;1699019;84;21041;-38
2022/02/02 08:08:11;;;;;;;20.55;9.13;;;;;;;-0.89;55.11;98177.16;1693537;84;21010;-38
2022/02/02 08:10:28;;;;;;;18.37;8.70;;;;;;;-0.78;55.13;98173.64;1676486;85;21160;-38
2022/02/02 08:13:07;;;;;;;19.40;9.13;;;;;;;-0.68;54.95;98172.00;1678699;84;21010;-38
2022/02/02 08:15:31;;;;;;;18.48;8.88;;;;;;;-0.58;54.68;98176.97;1713476;82;20930;-38
2022/02/02 08:17:56;;;;;;;17.57;7.60;;;;;;;-0.55;54.66;98179.56;1713668;82;21087;-38
2022/02/02 08:20:24;;;;;;;15.85;8.63;;;;;;;-0.51;54.81;98167.97;1713756;83;21507;-38
2022/02/02 08:22:51;;;;;;;20.12;9.88;;;;;;;-0.43;54.78;98175.70;1713485;82;21103;-38
2022/02/02 08:25:29;;;;;;;20.60;9.20;;;;;;;-0.32;54.77;98170.83;1713427;82;20986;-38
2022/02/02 08:27:48;;;;;;;18.48;9.28;;;;;;;-0.20;54.69;98173.63;1711500;82;21094;-38
2022/02/02 08:30:19;;;;;;;18.02;8.88;;;;;;;-0.06;54.25;98172.88;1725937;82;20970;-38
2022/02/02 08:32:57;;;;;;;19.62;9.30;;;;;;;0.03;53.93;98172.30;1749408;80;21588;-38
2022/02/02 08:35:22;;;;;;;18.25;10.32;;;;;;;0.05;53.88;98178.08;1786457;80;21770;-38
2022/02/02 08:37:56;;;;;;;22.37;10.48;;;;;;;0.04;54.03;98176.53;1788161;80;21550;-39
2022/02/02 08:40:32;;;;;;;25.43;11.10;;;;;;;0.04;54.26;98173.08;1787313;80;21492;-38
2022/02/02 08:42:53;;;;;;;19.52;10.40;;;;;;;0.10;54.58;98173.91;1783681;80;21020;-38
2022/02/02 08:45:25;;;;;;;21.23;9.98;;;;;;;0.20;54.40;98167.44;1772375;81;21009;-38
2022/02/02 08:47:59;;;;;;;21.27;11.08;;;;;;;0.34;54.47;98167.45;1771658;81;21141;-38
2022/02/02 08:50:28;;;;;;;22.07;11.05;;;;;;;0.49;54.43;98159.45;1770383;81;21016;-38
2022/02/02 08:52:54;;;;;;;21.95;10.60;;;;;;;0.63;54.05;98156.58;1771094;81;21002;-38
2022/02/02 08:55:22;;;;;;;20.62;10.48;;;;;;;0.71;54.06;98162.40;1771893;81;20982;-38
2022/02/02 08:57:58;;;;;;;23.20;10.90;;;;;;;0.79;53.96;98156.22;1772052;81;21077;-38
2022/02/02 09:00:22;;;;;;;21.75;10.28;;;;;;;0.90;54.06;98154.73;1770393;81;21120;-38
2022/02/02 09:05:17;;;;;;;21.60;11.03;;;;;;;0.99;53.80;98147.44;1733030;81;21010;-39
2022/02/02 09:05:23;;;;;;;26.30;11.40;;;;;;;1.09;53.64;98141.72;1724360;83;21026;-38
2022/02/02 09:07:49;;;;;;;23.50;11.00;;;;;;;1.18;53.46;98149.09;1727276;81;20970;-38
2022/02/02 09:10:24;;;;;;;21.73;11.12;;;;;;;1.17;53.50;98142.19;1756864;81;21016;-39
2022/02/02 09:23:44;;;;;;;31.35;12.68;;;;;;;1.74;53.04;98137.50;1788186;80;20956;-38
2022/02/02 09:33:54;;;;;;;21.42;10.65;;;;;;;2.09;53.04;98119.93;1745660;80;20981;-39
2022/02/02 09:36:24;;;;;;;22.32;10.53;;;;;;;2.22;52.96;98114.05;1713862;82;21025;-39
2022/02/02 09:38:52;;;;;;;26.75;11.45;;;;;;;2.35;52.77;98104.90;1713563;83;21126;-39
2022/02/02 09:41:36;;;;;;;19.90;11.20;;;;;;;2.43;52.50;98102.66;1713855;83;20966;-39
2022/02/02 09:44:00;;;;;;;22.93;11.08;;;;;;;2.52;52.23;98092.61;1713139;82;21539;-39
2022/02/02 09:46:32;;;;;;;22.27;10.43;;;;;;;2.56;52.10;98094.07;1713376;83;21077;-38
2022/02/02 09:48:58;;;;;;;25.68;10.63;;;;;;;2.63;52.32;98102.29;1713199;82;21536;-39
2022/02/02 09:51:35;;;;;;;24.90;11.22;;;;;;;2.70;51.87;98087.02;1713286;82;21296;-38
2022/02/02 09:54:10;;;;;;;27.13;11.48;;;;;;;2.74;52.03;98081.98;1713272;82;21473;-39
2022/02/02 09:59:06;;;;;;;22.73;10.20;;;;;;;2.92;51.65;98073.89;1713403;83;20982;-39
2022/02/02 10:01:42;;;;;;;26.37;10.65;;;;;;;2.99;51.88;98066.63;1713296;82;21090;-38
2022/02/02 10:07:36;;;;;;;;;;;;;;;3.17;51.56;98057.73;1716262;82;21095;-39
2022/02/02 10:10:50;;;;;;;22.98;10.30;;;;;;;3.25;51.41;98043.39;1739680;82;20156;-39
2022/02/02 10:15:28;;;;;;;24.70;11.57;;;;;;;3.38;51.47;98052.39;1743370;82;21084;-39
2022/02/02 10:18:04;;;;;;;21.25;10.65;;;;;;;3.45;51.18;98042.39;1743608;82;21626;-39
2022/02/02 10:20:31;;;;;;;19.60;10.95;;;;;;;3.47;51.14;98037.48;1743213;81;21034;-39
2022/02/02 10:23:00;;;;;;;19.62;10.10;;;;;;;3.46;51.09;98035.92;1743558;80;21086;-39
2022/02/02 10:25:37;;;;;;;25.17;10.80;;;;;;;3.45;51.29;98033.02;1743220;81;21445;-39
2022/02/02 10:28:20;;;;;;;24.25;10.60;;;;;;;3.40;51.19;98028.69;1743401;82;21560;-39
2022/02/02 10:30:53;;;;;;;18.87;9.10;;;;;;;3.34;51.58;98027.97;1755318;81;21119;-39
2022/02/02 10:33:24;;;;;;;18.48;9.25;;;;;;;3.34;51.77;98030.06;1756827;81;21235;-39
2022/02/02 10:35:53;;;;;;;21.33;9.98;;;;;;;3.37;51.46;98031.29;1756597;81;20981;-39
2022/02/02 10:38:28;;;;;;;21.12;10.63;;;;;;;3.36;51.52;98041.22;1756810;81;21551;-39
2022/02/02 10:41:12;;;;;;;23.10;10.68;;;;;;;3.27;51.49;98032.58;1756460;81;21084;-39
2022/02/02 10:46:24;;;;;;;16.87;9.13;;;;;;;3.19;52.35;98026.05;1756668;81;20921;-39
2022/02/02 10:51:23;;;;;;;19.20;9.63;;;;;;;3.20;51.87;98023.56;1756491;81;21525;-39
2022/02/02 10:54:02;;;;;;;22.77;9.83;;;;;;;3.18;52.17;98021.80;1756087;81;21494;-39
2022/02/02 10:56:32;;;;;;;19.77;9.80;;;;;;;3.19;51.95;98013.99;1754579;81;21184;-39
2022/02/02 11:06:54;;;;;;;18.98;9.08;;;;;;;3.12;52.18;97999.84;1756669;81;21495;-39
2022/02/02 11:09:21;;;;;;;22.27;9.25;;;;;;;3.06;52.59;98017.27;1756632;81;21132;-39
2022/02/02 11:11:50;;;;;;;21.75;10.23;;;;;;;3.03;52.76;98006.70;1756374;80;21013;-39
2022/02/02 11:14:57;;;;;;;19.82;9.40;;;;;;;3.02;52.99;98001.12;1756959;81;21028;-39
2022/02/02 11:17:47;;;;;;;22.05;9.45;;;;;;;3.01;53.13;97996.11;1756751;81;21055;-39
2022/02/02 11:20:15;;;;;;;20.12;8.90;;;;;;;2.97;53.16;98000.03;1720994;83;21084;-38
2022/02/02 11:22:53;;;;;;;19.93;9.13;;;;;;;2.93;53.24;97995.70;1720856;83;21821;-39
2022/02/02 11:25:33;;;;;;;24.18;10.08;;;;;;;2.92;53.32;97997.61;1720817;83;21016;-39
2022/02/02 11:27:57;;;;;;;17.07;9.40;;;;;;;2.90;53.63;97995.06;1701803;84;20985;-39
2022/02/02 11:30:29;;;;;;;17.70;8.90;;;;;;;2.91;53.82;97989.34;1695327;84;21038;-39
2022/02/02 11:33:00;;;;;;;17.87;9.15;;;;;;;2.97;53.78;97985.31;1710268;83;21049;-39
2022/02/02 11:35:46;;;;;;;19.07;9.98;;;;;;;3.04;53.81;97986.84;1729997;82;21104;-39
2022/02/02 11:38:22;;;;;;;20.72;9.98;;;;;;;3.03;53.76;97995.21;1729461;82;21575;-39
2022/02/02 11:49:46;;;;;;;20.00;10.10;;;;;;;2.77;54.72;97980.16;1707253;84;21802;-39
2022/02/02 11:52:43;;;;;;;21.42;9.88;;;;;;;2.75;55.01;97989.11;1707550;84;20966;-39
2022/02/02 11:55:17;;;;;;;21.35;9.53;;;;;;;2.74;55.15;97983.53;1707313;83;21021;-39
2022/02/02 11:58:20;;;;;;;20.60;9.75;;;;;;;2.73;55.31;97974.72;1707185;84;21650;-39
2022/02/02 12:00:58;;;;;;;20.43;10.15;;;;;;;2.74;55.54;97973.61;1707132;83;21097;-39
2022/02/02 12:04:27;;;;;;;21.82;9.88;;;;;;;2.77;55.54;97980.94;1704992;84;21089;-39
2022/02/02 12:06:41;;;;;;;19.77;10.15;;;;;;;2.79;55.74;97981.39;1691382;84;20942;-39
2022/02/02 12:09:17;;;;;;;19.20;10.60;;;;;;;2.82;55.53;97986.05;1705233;84;21457;-38
2022/02/02 12:47:19;;;;;;;21.25;10.35;;;;;;;3.50;55.16;97996.59;1699559;83;21002;-39
2022/02/02 12:56:05;;;;;;;23.15;11.40;;;;;;;3.31;55.81;97991.14;1699576;84;21097;-39
2022/02/02 12:58:06;;;;;;;19.48;10.40;;;;;;;3.22;56.12;97993.21;1696373;84;21264;-39
2022/02/02 13:00:51;;;;;;;22.10;9.55;;;;;;;3.14;56.39;97996.28;1699196;84;21093;-40
2022/02/02 13:03:08;;;;;;;19.45;11.03;;;;;;;3.15;56.62;97997.81;1698291;84;21019;-39
2022/02/02 13:05:38;;;;;;;22.60;10.90;;;;;;;3.19;56.58;98004.62;1699524;83;21105;-39
2022/02/02 13:08:05;;;;;;;21.27;10.20;;;;;;;3.19;56.55;98007.30;1699968;84;21031;-40
2022/02/02 13:10:35;;;;;;;18.52;10.43;;;;;;;3.10;56.75;98007.44;1699513;84;21823;-39
2022/02/02 13:13:15;;;;;;;22.55;10.32;;;;;;;3.04;57.07;98007.48;1716850;83;20993;-40
2022/02/02 13:21:06;;;;;;;25.17;11.15;;;;;;;2.98;57.50;98017.66;1737358;80;21104;-39
2022/02/02 13:26:41;;;;;;;22.90;10.93;;;;;;;2.86;57.96;98020.37;1743329;82;21017;-39
2022/02/02 13:29:12;;;;;;;20.43;10.38;;;;;;;2.80;58.29;98022.31;1743187;81;21108;-39
2022/02/02 13:31:47;;;;;;;20.27;10.48;;;;;;;2.77;58.41;98021.64;1753673;81;21084;-39
2022/02/02 13:34:31;;;;;;;19.37;10.50;;;;;;;2.72;58.60;98026.67;1764472;81;21040;-40
2022/02/02 13:37:00;;;;;;;15.60;9.90;;;;;;;2.63;58.82;98022.02;1768106;81;21149;-39
2022/02/02 13:42:43;;;;;;;19.62;10.32;;;;;;;2.57;59.15;98012.67;1769689;81;21008;-39
2022/02/02 13:48:02;;;;;;;20.37;10.35;;;;;;;2.48;59.61;98031.54;1769905;81;21573;-39
2022/02/02 14:01:32;;;;;;;21.42;10.32;;;;;;;2.30;60.67;98034.26;1763752;80;21139;-39
2022/02/02 14:06:38;;;;;;;20.12;9.58;;;;;;;2.33;60.79;98026.11;1726388;81;21041;-40
2022/02/02 14:09:10;;;;;;;20.65;9.68;;;;;;;2.35;60.78;98017.98;1738176;81;21052;-39
2022/02/02 14:33:16;;;;;;;23.20;10.85;;;;;;;2.20;61.33;98024.02;1724486;82;20977;-40
2022/02/02 14:35:46;;;;;;;20.95;10.03;;;;;;;2.16;61.47;98027.94;1713653;83;21076;-40
2022/02/02 14:38:15;;;;;;;21.40;9.95;;;;;;;2.16;61.50;98033.84;1713700;82;21085;-40
2022/02/02 14:41:00;;;;;;;18.92;9.60;;;;;;;2.16;61.55;98034.62;1713673;82;21049;-39
2022/02/02 14:43:16;;;;;;;19.23;9.85;;;;;;;2.16;61.56;98037.29;1712627;82;21179;-40
2022/02/02 14:45:48;;;;;;;18.12;9.38;;;;;;;2.16;61.73;98042.64;1713719;82;21033;-39
2022/02/02 14:48:29;;;;;;;18.42;9.28;;;;;;;2.12;61.86;98036.41;1713369;82;20942;-40
2022/02/02 14:51:10;;;;;;;19.45;9.20;;;;;;;2.09;62.02;98042.41;1713217;82;21050;-40
2022/02/02 14:53:43;;;;;;;19.20;9.68;;;;;;;2.05;62.37;98032.72;1708091;82;21452;-40
2022/02/02 15:26:39;;;;;;;21.12;10.15;;;;;;;1.63;64.19;98060.22;1685020;85;21005;-40
2022/02/02 15:28:15;;;;;;;20.25;9.78;;;;;;;1.61;64.33;98060.55;1683282;84;21036;-40
2022/02/02 15:33:27;;;;;;;23.47;10.48;;;;;;;1.57;64.78;98066.33;1693836;83;21040;-40
2022/02/02 15:36:06;;;;;;;23.30;11.28;;;;;;;1.55;64.89;98064.53;1726533;82;21803;-39
2022/02/02 15:38:27;;;;;;;19.62;10.50;;;;;;;1.55;64.96;98067.20;1727216;82;21507;-40
2022/02/02 15:40:59;;;;;;;19.73;10.45;;;;;;;1.59;65.03;98071.35;1726162;83;21053;-39
2022/02/02 15:43:36;;;;;;;23.10;10.18;;;;;;;1.61;65.01;98071.78;1726570;82;20989;-40
2022/02/02 16:02:20;;;;;;;21.33;10.20;;;;;;;1.66;64.91;98088.93;1726348;83;22351;-40
2022/02/02 16:04:46;;;;;;;19.17;10.15;;;;;;;1.64;64.98;98086.61;1726306;83;21012;-39
2022/02/02 16:07:23;;;;;;;19.40;10.25;;;;;;;1.63;65.06;98076.25;1726568;83;21021;-39
2022/02/02 16:13:00;;;;;;;16.97;9.43;;;;;;;1.65;65.17;98085.48;1733099;81;20992;-39
2022/02/02 16:14:48;;;;;;;24.80;11.10;;;;;;;1.68;65.24;98086.72;1752252;81;21204;-39
2022/02/02 16:17:32;;;;;;;25.65;10.93;;;;;;;1.67;65.27;98081.15;1756536;81;21038;-39
2022/02/02 16:38:14;;;;;;;22.70;11.05;;;;;;;1.72;65.59;98098.30;1726448;83;21905;-40
2022/02/02 16:40:42;;;;;;;20.12;10.50;;;;;;;1.72;65.68;98099.63;1726387;82;21336;-39
2022/02/02 16:43:13;;;;;;;20.52;10.40;;;;;;;1.73;65.76;98099.31;1726225;82;21059;-40
2022/02/02 16:45:38;;;;;;;20.62;10.63;;;;;;;1.71;65.86;98108.20;1725986;82;21009;-40
2022/02/02 16:48:05;;;;;;;21.48;11.78;;;;;;;1.72;65.92;98102.30;1726270;83;20949;-40
2022/02/02 16:50:37;;;;;;;19.48;10.40;;;;;;;1.71;66.04;98108.20;1726417;83;21040;-40
2022/02/02 16:53:08;;;;;;;23.55;11.90;;;;;;;1.72;66.07;98112.99;1726275;82;21814;-40
2022/02/02 16:55:43;;;;;;;22.90;11.63;;;;;;;1.71;65.94;98116.77;1725734;82;21530;-40
2022/02/02 17:33:36;;;;;;;20.97;11.12;;;;;;;1.53;67.75;98096.70;1736463;81;21202;-39
2022/02/02 18:19:13;;;;;;;22.13;11.00;;;;;;;1.53;66.57;98110.06;1757271;81;21470;-39
2022/02/02 18:21:40;;;;;;;24.82;12.35;;;;;;;1.52;66.49;98104.48;1756941;81;21016;-40
2022/02/02 18:26:50;;;;;;;;;;;;;;;1.54;66.41;98100.94;1759431;81;20957;-40
2022/02/02 18:29:32;;;;;;;22.17;12.30;;;;;;;1.55;66.31;98101.92;1756238;81;20149;-39
2022/02/02 18:43:00;;;;;;;26.68;13.05;;;;;;;1.63;65.74;98104.30;1709859;84;21065;-39
2022/02/02 19:02:55;;;;;;;25.52;13.28;;;;;;;1.82;64.50;98115.23;1720465;83;21504;-39
2022/02/02 19:40:44;;;;;;;25.45;14.13;;;;;;;2.00;64.49;98129.17;1722515;83;21479;-40
2022/02/02 20:01:50;;;;;;;23.27;13.10;;;;;;;1.95;65.42;98146.20;1693872;84;21085;-40
2022/02/02 20:07:08;;;;;;;23.07;13.18;;;;;;;1.94;65.58;98144.64;1690760;84;21558;-39
2022/02/02 20:12:15;;;;;;;24.12;13.43;;;;;;;1.90;65.57;98146.97;1678387;84;21556;-39
2022/02/02 20:14:43;;;;;;;22.58;12.85;;;;;;;1.88;65.47;98142.53;1675346;85;21059;-40
2022/02/02 20:17:16;;;;;;;26.93;13.48;;;;;;;1.89;65.44;98141.42;1741388;82;21129;-40
2022/02/02 20:19:44;;;;;;;25.57;13.48;;;;;;;1.88;65.37;98140.64;1741223;82;20886;-39
2022/02/02 20:22:10;;;;;;;26.48;13.80;;;;;;;1.88;65.44;98134.52;1741156;82;21029;-40
2022/02/02 20:24:50;;;;;;;25.27;13.72;;;;;;;1.89;65.45;98134.16;1741419;82;21017;-40
2022/02/02 20:27:10;;;;;;;24.90;13.55;;;;;;;1.91;65.48;98135.95;1738284;82;21034;-40
2022/02/02 20:29:37;;;;;;;25.10;13.80;;;;;;;1.96;65.45;98134.41;1739871;82;21147;-40
2022/02/02 20:32:06;;;;;;;25.17;14.25;;;;;;;1.97;65.34;98133.86;1739839;82;21513;-39
2022/02/02 20:34:33;;;;;;;26.33;14.35;;;;;;;1.99;65.24;98140.41;1717365;82;21504;-39
2022/02/02 20:36:59;;;;;;;30.08;13.85;;;;;;;2.00;65.24;98137.97;1711897;83;21057;-40
2022/02/02 20:41:58;;;;;;;23.95;13.95;;;;;;;2.00;65.04;98147.33;1711938;83;21156;-39
2022/02/02 20:44:42;;;;;;;24.27;14.13;;;;;;;2.01;65.06;98141.42;1711783;83;21516;-40
2022/02/02 21:00:52;;;;;;;25.68;14.43;;;;;;;1.97;65.06;98152.02;1728285;81;21594;-39
2022/02/02 21:05:53;;;;;;;24.47;14.38;;;;;;;2.01;65.11;98163.59;1726412;83;21052;-40
2022/02/02 21:10:51;;;;;;;25.30;14.18;;;;;;;2.04;65.05;98165.59;1756437;81;20965;-40
2022/02/02 21:13:41;;;;;;;23.32;13.65;;;;;;;2.04;64.98;98158.91;1756540;81;21613;-40
2022/02/02 21:16:06;;;;;;;24.18;13.78;;;;;;;2.05;64.95;98167.71;1756511;81;21009;-40
2022/02/02 21:18:36;;;;;;;23.83;13.78;;;;;;;2.02;64.90;98161.15;1756748;81;20996;-40
2022/02/02 21:21:16;;;;;;;25.55;14.10;;;;;;;2.00;64.91;98160.69;1756438;81;21524;-40
2022/02/02 21:24:29;;;;;;;25.12;14.20;;;;;;;2.00;64.87;98158.02;1775326;80;20999;-40
2022/02/02 21:28:34;;;;;;;27.70;14.85;;;;;;;2.00;64.79;98171.38;1788320;80;21712;-40
2022/02/02 21:31:00;;;;;;;25.77;13.70;;;;;;;2.01;64.79;98176.95;1788201;80;20952;-40
2022/02/02 21:33:28;;;;;;;24.87;12.88;;;;;;;2.01;64.83;98170.28;1766377;80;21135;-40
2022/02/02 21:35:56;;;;;;;24.95;13.88;;;;;;;2.00;64.82;98170.05;1726406;82;21890;-39
2022/02/02 21:40:54;;;;;;;22.77;13.72;;;;;;;2.02;64.74;98175.85;1726321;83;21113;-40
2022/02/02 21:43:21;;;;;;;28.15;13.88;;;;;;;2.00;64.73;98184.75;1726442;82;21058;-40
2022/02/02 21:45:47;;;;;;;26.97;13.45;;;;;;;2.00;64.79;98178.61;1725640;82;21118;-40
2022/02/02 21:48:15;;;;;;;33.33;14.75;;;;;;;1.98;64.92;98186.98;1713638;83;21545;-39
2022/02/02 21:50:59;;;;;;;26.20;13.30;;;;;;;1.97;64.85;98189.98;1740224;80;20993;-39
2022/02/02 21:53:22;;;;;;;23.60;12.95;;;;;;;1.96;64.88;98197.77;1742899;81;21037;-39
2022/02/02 21:55:49;;;;;;;26.75;14.33;;;;;;;1.95;64.96;98196.98;1743301;82;21018;-40
2022/02/02 21:58:15;;;;;;;23.55;13.03;;;;;;;1.95;64.94;98198.32;1743340;82;21135;-40